HJU weather

Jupiter I Platform Helipad
Zonda De Campeche, Campeche, Mexico

Public forecast

Using degrees Celsius for public forecast. Weather courtesy of forecast.io.

METAR (pilot weather report)

Closest report is Ciudad del Carmen International Airport, 56.5 nm (104.5 km) SSE. Retrieved 2019/06/24 16:43 UTC (33 minutes ago):

MMCE 241643Z 15013KT 7SM FEW015 SCT300 31/24 A2990 RMK 8/508 HZY

TAF (pilot weather forecast)

Forecast is more than 6 hours old.

Closest forecast is Ciudad del Carmen International Airport, 56.5 nm (104.5 km) SSE. Retrieved 2019/06/24 06:27 UTC (11 hours ago):

TAF MMCE 240511Z 2406/2506 13005KT P6SM SCT250 FM241000 13018KT P6SM SCT020 FM241600 13012KT P6SM SCT020 FM250300 06008KT P6SM SCT015